sensor_id;sensor_type;location;lat;lon;timestamp;pressure;altitude;pressure_sealevel;temperature;humidity
50093;BME280;35974;47.752;10.290;2024-03-06T00:02:07;93717.38;;;2.60;100.00
50093;BME280;35974;47.752;10.290;2024-03-06T00:04:34;93698.50;;;2.51;100.00
50093;BME280;35974;47.752;10.290;2024-03-06T00:07:01;93710.94;;;2.55;100.00
50093;BME280;35974;47.752;10.290;2024-03-06T00:09:27;93688.94;;;2.35;100.00
50093;BME280;35974;47.752;10.290;2024-03-06T00:11:56;93707.66;;;2.37;100.00
50093;BME280;35974;47.752;10.290;2024-03-06T00:14:23;93676.31;;;2.24;100.00
50093;BME280;35974;47.752;10.290;2024-03-06T00:16:51;93690.22;;;2.31;100.00
50093;BME280;35974;47.752;10.290;2024-03-06T00:19:18;93722.38;;;2.53;100.00
50093;BME280;35974;47.752;10.290;2024-03-06T00:21:44;93697.13;;;2.22;100.00
50093;BME280;35974;47.752;10.290;2024-03-06T00:24:12;93674.34;;;2.09;100.00
50093;BME280;35974;47.752;10.290;2024-03-06T00:26:40;93726.56;;;2.46;100.00
50093;BME280;35974;47.752;10.290;2024-03-06T00:29:06;93673.34;;;2.02;100.00
50093;BME280;35974;47.752;10.290;2024-03-06T00:31:45;93711.97;;;2.20;100.00
50093;BME280;35974;47.752;10.290;2024-03-06T00:34:12;93684.91;;;1.90;100.00
50093;BME280;35974;47.752;10.290;2024-03-06T00:36:45;93694.31;;;1.99;100.00
50093;BME280;35974;47.752;10.290;2024-03-06T00:39:12;93693.00;;;1.95;100.00
50093;BME280;35974;47.752;10.290;2024-03-06T00:41:41;93664.59;;;1.87;100.00
50093;BME280;35974;47.752;10.290;2024-03-06T00:44:08;93728.75;;;2.24;100.00
50093;BME280;35974;47.752;10.290;2024-03-06T00:46:35;93729.25;;;2.19;100.00
50093;BME280;35974;47.752;10.290;2024-03-06T00:49:02;93712.09;;;2.10;100.00
50093;BME280;35974;47.752;10.290;2024-03-06T00:51:42;93695.09;;;1.99;100.00
50093;BME280;35974;47.752;10.290;2024-03-06T00:54:14;93726.25;;;2.06;100.00
50093;BME280;35974;47.752;10.290;2024-03-06T00:56:41;93717.53;;;1.99;100.00
50093;BME280;35974;47.752;10.290;2024-03-06T00:59:07;93694.75;;;1.86;100.00
50093;BME280;35974;47.752;10.290;2024-03-06T01:01:34;93681.69;;;1.88;100.00
50093;BME280;35974;47.752;10.290;2024-03-06T01:04:01;93675.84;;;1.77;100.00
50093;BME280;35974;47.752;10.290;2024-03-06T01:06:27;93707.78;;;1.85;100.00
50093;BME280;35974;47.752;10.290;2024-03-06T01:08:56;93743.06;;;2.10;100.00
50093;BME280;35974;47.752;10.290;2024-03-06T01:11:24;93711.53;;;1.90;100.00
50093;BME280;35974;47.752;10.290;2024-03-06T01:13:53;93700.22;;;1.83;100.00
50093;BME280;35974;47.752;10.290;2024-03-06T01:16:20;93732.06;;;2.00;100.00
50093;BME280;35974;47.752;10.290;2024-03-06T01:18:46;93644.25;;;1.41;100.00
50093;BME280;35974;47.752;10.290;2024-03-06T01:21:13;93710.03;;;1.79;100.00
50093;BME280;35974;47.752;10.290;2024-03-06T01:23:40;93723.16;;;1.94;100.00
50093;BME280;35974;47.752;10.290;2024-03-06T01:26:06;93691.94;;;1.71;100.00
50093;BME280;35974;47.752;10.290;2024-03-06T01:28:33;93687.38;;;1.65;100.00
50093;BME280;35974;47.752;10.290;2024-03-06T01:31:00;93672.84;;;1.56;100.00
50093;BME280;35974;47.752;10.290;2024-03-06T01:33:26;93666.72;;;1.57;100.00
50093;BME280;35974;47.752;10.290;2024-03-06T01:35:53;93679.81;;;1.63;100.00
50093;BME280;35974;47.752;10.290;2024-03-06T01:38:19;93660.63;;;1.58;100.00
50093;BME280;35974;47.752;10.290;2024-03-06T01:40:46;93661.22;;;1.52;100.00
50093;BME280;35974;47.752;10.290;2024-03-06T01:43:24;93712.94;;;1.85;100.00
50093;BME280;35974;47.752;10.290;2024-03-06T01:45:52;93654.13;;;1.54;100.00
50093;BME280;35974;47.752;10.290;2024-03-06T01:48:23;93686.81;;;1.79;100.00
50093;BME280;35974;47.752;10.290;2024-03-06T01:50:56;93693.53;;;1.72;100.00
50093;BME280;35974;47.752;10.290;2024-03-06T01:53:23;93674.53;;;1.73;100.00
50093;BME280;35974;47.752;10.290;2024-03-06T01:55:53;93686.47;;;1.74;100.00
50093;BME280;35974;47.752;10.290;2024-03-06T01:58:19;93691.63;;;1.74;100.00
50093;BME280;35974;47.752;10.290;2024-03-06T02:00:50;93691.66;;;1.82;100.00
50093;BME280;35974;47.752;10.290;2024-03-06T02:03:18;93672.22;;;1.62;100.00
50093;BME280;35974;47.752;10.290;2024-03-06T02:05:48;93683.34;;;1.62;100.00
50093;BME280;35974;47.752;10.290;2024-03-06T02:08:15;93706.50;;;1.80;100.00
50093;BME280;35974;47.752;10.290;2024-03-06T02:10:41;93703.91;;;1.80;100.00
50093;BME280;35974;47.752;10.290;2024-03-06T02:13:10;93698.38;;;1.75;100.00
50093;BME280;35974;47.752;10.290;2024-03-06T02:15:36;93688.31;;;1.56;100.00
50093;BME280;35974;47.752;10.290;2024-03-06T02:18:07;93721.97;;;1.80;100.00
50093;BME280;35974;47.752;10.290;2024-03-06T02:20:37;93694.28;;;1.56;100.00
50093;BME280;35974;47.752;10.290;2024-03-06T02:23:04;93664.28;;;1.21;100.00
50093;BME280;35974;47.752;10.290;2024-03-06T02:25:31;93684.78;;;1.31;100.00
50093;BME280;35974;47.752;10.290;2024-03-06T02:27:58;93728.75;;;1.55;100.00
50093;BME280;35974;47.752;10.290;2024-03-06T02:30:25;93703.69;;;1.39;100.00
50093;BME280;35974;47.752;10.290;2024-03-06T02:32:51;93672.94;;;1.20;100.00
50093;BME280;35974;47.752;10.290;2024-03-06T02:35:18;93670.31;;;1.12;100.00
50093;BME280;35974;47.752;10.290;2024-03-06T02:37:44;93670.31;;;1.12;100.00
50093;BME280;35974;47.752;10.290;2024-03-06T02:40:12;93687.81;;;1.26;100.00
50093;BME280;35974;47.752;10.290;2024-03-06T02:42:39;93688.13;;;1.23;100.00
50093;BME280;35974;47.752;10.290;2024-03-06T02:45:06;93715.13;;;1.37;100.00
50093;BME280;35974;47.752;10.290;2024-03-06T02:47:34;93698.53;;;1.39;100.00
50093;BME280;35974;47.752;10.290;2024-03-06T02:50:00;93689.16;;;1.30;100.00
50093;BME280;35974;47.752;10.290;2024-03-06T02:52:27;93721.63;;;1.49;100.00
50093;BME280;35974;47.752;10.290;2024-03-06T02:54:54;93707.84;;;1.32;100.00
50093;BME280;35974;47.752;10.290;2024-03-06T02:57:20;93688.41;;;1.20;100.00
50093;BME280;35974;47.752;10.290;2024-03-06T02:59:47;93712.41;;;1.38;100.00
50093;BME280;35974;47.752;10.290;2024-03-06T03:02:14;93645.41;;;0.94;100.00
50093;BME280;35974;47.752;10.290;2024-03-06T03:04:40;93667.03;;;1.01;100.00
50093;BME280;35974;47.752;10.290;2024-03-06T03:07:07;93726.59;;;1.42;100.00
50093;BME280;35974;47.752;10.290;2024-03-06T03:09:33;93690.66;;;1.15;100.00
50093;BME280;35974;47.752;10.290;2024-03-06T03:12:02;93662.84;;;1.00;100.00
50093;BME280;35974;47.752;10.290;2024-03-06T03:14:28;93669.03;;;1.07;100.00
50093;BME280;35974;47.752;10.290;2024-03-06T03:17:01;93717.25;;;1.41;100.00
50093;BME280;35974;47.752;10.290;2024-03-06T03:19:28;93708.19;;;1.37;100.00
50093;BME280;35974;47.752;10.290;2024-03-06T03:21:55;93718.19;;;1.40;100.00
50093;BME280;35974;47.752;10.290;2024-03-06T03:24:22;93694.31;;;1.30;100.00
50093;BME280;35974;47.752;10.290;2024-03-06T03:26:56;93691.34;;;1.25;100.00
50093;BME280;35974;47.752;10.290;2024-03-06T03:29:22;93697.19;;;1.27;100.00
50093;BME280;35974;47.752;10.290;2024-03-06T03:31:49;93722.41;;;1.41;100.00
50093;BME280;35974;47.752;10.290;2024-03-06T03:34:16;93701.97;;;1.22;100.00
50093;BME280;35974;47.752;10.290;2024-03-06T03:36:42;93713.00;;;1.32;100.00
50093;BME280;35974;47.752;10.290;2024-03-06T03:39:10;93737.25;;;1.48;100.00
50093;BME280;35974;47.752;10.290;2024-03-06T03:41:46;93689.34;;;1.11;100.00
50093;BME280;35974;47.752;10.290;2024-03-06T03:44:17;93716.47;;;1.23;100.00
50093;BME280;35974;47.752;10.290;2024-03-06T03:46:47;93681.84;;;0.99;100.00
50093;BME280;35974;47.752;10.290;2024-03-06T03:49:14;93710.84;;;1.01;100.00
50093;BME280;35974;47.752;10.290;2024-03-06T03:51:40;93740.25;;;1.17;100.00
50093;BME280;35974;47.752;10.290;2024-03-06T03:54:07;93719.47;;;0.92;100.00
50093;BME280;35974;47.752;10.290;2024-03-06T03:56:35;93710.03;;;0.83;100.00
50093;BME280;35974;47.752;10.290;2024-03-06T03:59:01;93684.75;;;0.60;100.00
50093;BME280;35974;47.752;10.290;2024-03-06T04:01:28;93743.38;;;1.02;100.00
50093;BME280;35974;47.752;10.290;2024-03-06T04:03:55;93713.22;;;0.77;100.00
50093;BME280;35974;47.752;10.290;2024-03-06T04:06:21;93701.59;;;0.72;100.00
50093;BME280;35974;47.752;10.290;2024-03-06T04:08:48;93730.75;;;0.91;100.00
50093;BME280;35974;47.752;10.290;2024-03-06T04:11:15;93722.91;;;0.83;100.00
50093;BME280;35974;47.752;10.290;2024-03-06T04:13:42;93751.56;;;0.98;100.00
50093;BME280;35974;47.752;10.290;2024-03-06T04:16:08;93726.09;;;0.77;100.00
50093;BME280;35974;47.752;10.290;2024-03-06T04:18:35;93723.38;;;0.60;100.00
50093;BME280;35974;47.752;10.290;2024-03-06T04:21:05;93712.63;;;0.47;100.00
50093;BME280;35974;47.752;10.290;2024-03-06T04:23:32;93719.41;;;0.48;100.00
50093;BME280;35974;47.752;10.290;2024-03-06T04:26:02;93717.75;;;0.47;100.00
50093;BME280;35974;47.752;10.290;2024-03-06T04:28:29;93752.59;;;0.69;100.00
50093;BME280;35974;47.752;10.290;2024-03-06T04:30:57;93715.88;;;0.49;100.00
50093;BME280;35974;47.752;10.290;2024-03-06T04:33:24;93749.50;;;0.65;100.00
50093;BME280;35974;47.752;10.290;2024-03-06T04:35:50;93738.50;;;0.63;100.00
50093;BME280;35974;47.752;10.290;2024-03-06T04:38:17;93757.16;;;0.75;100.00
50093;BME280;35974;47.752;10.290;2024-03-06T04:40:43;93753.09;;;0.72;100.00
50093;BME280;35974;47.752;10.290;2024-03-06T04:43:11;93717.34;;;0.51;100.00
50093;BME280;35974;47.752;10.290;2024-03-06T04:45:37;93755.03;;;0.70;100.00
50093;BME280;35974;47.752;10.290;2024-03-06T04:48:12;93745.59;;;0.61;100.00
50093;BME280;35974;47.752;10.290;2024-03-06T04:50:38;93741.41;;;0.60;100.00
50093;BME280;35974;47.752;10.290;2024-03-06T04:53:05;93761.78;;;0.71;100.00
50093;BME280;35974;47.752;10.290;2024-03-06T04:55:40;93743.31;;;0.58;100.00
50093;BME280;35974;47.752;10.290;2024-03-06T04:58:06;93770.84;;;0.76;100.00
50093;BME280;35974;47.752;10.290;2024-03-06T05:00:33;93761.13;;;0.69;100.00
50093;BME280;35974;47.752;10.290;2024-03-06T05:03:09;93731.63;;;0.46;100.00
50093;BME280;35974;47.752;10.290;2024-03-06T05:05:53;93758.53;;;0.51;100.00
50093;BME280;35974;47.752;10.290;2024-03-06T05:08:37;93747.06;;;0.46;100.00
50093;BME280;35974;47.752;10.290;2024-03-06T05:11:24;93764.72;;;0.59;100.00
50093;BME280;35974;47.752;10.290;2024-03-06T05:14:08;93748.38;;;0.50;100.00
50093;BME280;35974;47.752;10.290;2024-03-06T05:17:01;93770.19;;;0.73;100.00
50093;BME280;35974;47.752;10.290;2024-03-06T05:19:45;93776.28;;;0.72;100.00
50093;BME280;35974;47.752;10.290;2024-03-06T05:22:37;93765.31;;;0.70;100.00
50093;BME280;35974;47.752;10.290;2024-03-06T05:25:21;93798.59;;;0.82;100.00
50093;BME280;35974;47.752;10.290;2024-03-06T05:28:22;93777.06;;;0.55;100.00
50093;BME280;35974;47.752;10.290;2024-03-06T05:31:19;93756.28;;;0.39;100.00
50093;BME280;35974;47.752;10.290;2024-03-06T05:34:04;93777.66;;;0.49;100.00
50093;BME280;35974;47.752;10.290;2024-03-06T05:36:49;93789.28;;;0.53;100.00
50093;BME280;35974;47.752;10.290;2024-03-06T05:39:33;93779.25;;;0.50;100.00
50093;BME280;35974;47.752;10.290;2024-03-06T05:42:17;93791.00;;;0.62;100.00
50093;BME280;35974;47.752;10.290;2024-03-06T05:45:01;93811.69;;;0.70;100.00
50093;BME280;35974;47.752;10.290;2024-03-06T05:47:48;93792.59;;;0.63;100.00
50093;BME280;35974;47.752;10.290;2024-03-06T05:50:33;93802.97;;;0.71;100.00
50093;BME280;35974;47.752;10.290;2024-03-06T05:53:18;93808.06;;;0.81;100.00
50093;BME280;35974;47.752;10.290;2024-03-06T05:56:07;93797.47;;;0.66;100.00
50093;BME280;35974;47.752;10.290;2024-03-06T05:58:56;93796.50;;;0.67;100.00
50093;BME280;35974;47.752;10.290;2024-03-06T06:01:24;93796.50;;;0.67;100.00
50093;BME280;35974;47.752;10.290;2024-03-06T06:03:52;93770.50;;;0.43;100.00
50093;BME280;35974;47.752;10.290;2024-03-06T06:06:23;93766.88;;;0.35;100.00
50093;BME280;35974;47.752;10.290;2024-03-06T06:08:50;93814.69;;;0.66;100.00
50093;BME280;35974;47.752;10.290;2024-03-06T06:11:18;93804.44;;;0.56;100.00
50093;BME280;35974;47.752;10.290;2024-03-06T06:13:48;93822.25;;;0.67;100.00
50093;BME280;35974;47.752;10.290;2024-03-06T06:16:15;93817.91;;;0.68;100.00
50093;BME280;35974;47.752;10.290;2024-03-06T06:18:42;93799.28;;;0.56;100.00
50093;BME280;35974;47.752;10.290;2024-03-06T06:21:09;93828.16;;;0.78;100.00
50093;BME280;35974;47.752;10.290;2024-03-06T06:23:35;93827.41;;;0.67;100.00
50093;BME280;35974;47.752;10.290;2024-03-06T06:26:02;93800.91;;;0.57;100.00
50093;BME280;35974;47.752;10.290;2024-03-06T06:28:29;93823.22;;;0.66;100.00
50093;BME280;35974;47.752;10.290;2024-03-06T06:30:55;93822.41;;;0.66;100.00
50093;BME280;35974;47.752;10.290;2024-03-06T06:33:22;93849.81;;;0.85;100.00
50093;BME280;35974;47.752;10.290;2024-03-06T06:35:48;93819.88;;;0.56;100.00
50093;BME280;35974;47.752;10.290;2024-03-06T06:38:15;93825.50;;;0.69;100.00
50093;BME280;35974;47.752;10.290;2024-03-06T06:40:41;93839.88;;;0.72;100.00
50093;BME280;35974;47.752;10.290;2024-03-06T06:43:10;93840.66;;;0.72;100.00
50093;BME280;35974;47.752;10.290;2024-03-06T06:45:37;93842.88;;;0.67;100.00
50093;BME280;35974;47.752;10.290;2024-03-06T06:48:04;93819.31;;;0.62;100.00
50093;BME280;35974;47.752;10.290;2024-03-06T06:50:31;93845.25;;;0.79;100.00
50093;BME280;35974;47.752;10.290;2024-03-06T06:53:00;93833.59;;;0.75;100.00
50093;BME280;35974;47.752;10.290;2024-03-06T06:55:27;93853.34;;;0.84;100.00
50093;BME280;35974;47.752;10.290;2024-03-06T06:57:54;93836.31;;;0.73;100.00
50093;BME280;35974;47.752;10.290;2024-03-06T07:00:22;93830.66;;;0.69;100.00
50093;BME280;35974;47.752;10.290;2024-03-06T07:02:49;93810.38;;;0.57;100.00
50093;BME280;35974;47.752;10.290;2024-03-06T07:05:17;93827.13;;;0.70;100.00
50093;BME280;35974;47.752;10.290;2024-03-06T07:07:44;93823.28;;;0.75;100.00
50093;BME280;35974;47.752;10.290;2024-03-06T07:10:18;93829.41;;;0.73;100.00
50093;BME280;35974;47.752;10.290;2024-03-06T07:12:45;93832.66;;;0.76;100.00
50093;BME280;35974;47.752;10.290;2024-03-06T07:15:11;93854.41;;;0.91;100.00
50093;BME280;35974;47.752;10.290;2024-03-06T07:17:38;93834.94;;;0.79;100.00
50093;BME280;35974;47.752;10.290;2024-03-06T07:20:14;93841.34;;;0.93;100.00
50093;BME280;35974;47.752;10.290;2024-03-06T07:22:41;93833.47;;;0.94;100.00
50093;BME280;35974;47.752;10.290;2024-03-06T07:25:21;93840.84;;;0.89;100.00
50093;BME280;35974;47.752;10.290;2024-03-06T07:27:47;93839.22;;;0.88;100.00
50093;BME280;35974;47.752;10.290;2024-03-06T07:30:15;93844.91;;;0.91;100.00
50093;BME280;35974;47.752;10.290;2024-03-06T07:32:41;93812.69;;;0.78;100.00
50093;BME280;35974;47.752;10.290;2024-03-06T07:35:08;93852.47;;;0.93;100.00
50093;BME280;35974;47.752;10.290;2024-03-06T07:37:35;93844.09;;;0.91;100.00
50093;BME280;35974;47.752;10.290;2024-03-06T07:40:01;93867.03;;;1.02;100.00
50093;BME280;35974;47.752;10.290;2024-03-06T07:42:28;93870.31;;;1.04;100.00
50093;BME280;35974;47.752;10.290;2024-03-06T07:44:54;93873.41;;;1.08;100.00
50093;BME280;35974;47.752;10.290;2024-03-06T07:47:21;93873.25;;;1.09;100.00
50093;BME280;35974;47.752;10.290;2024-03-06T07:50:19;93875.91;;;1.18;100.00
50093;BME280;35974;47.752;10.290;2024-03-06T07:52:47;93868.69;;;1.03;100.00
50093;BME280;35974;47.752;10.290;2024-03-06T07:55:14;93864.31;;;1.04;100.00
50093;BME280;35974;47.752;10.290;2024-03-06T07:57:42;93858.38;;;1.03;100.00
50093;BME280;35974;47.752;10.290;2024-03-06T08:00:15;93870.81;;;1.08;100.00
50093;BME280;35974;47.752;10.290;2024-03-06T08:02:41;93887.53;;;1.22;100.00
50093;BME280;35974;47.752;10.290;2024-03-06T08:05:10;93867.81;;;1.13;100.00
50093;BME280;35974;47.752;10.290;2024-03-06T08:07:39;93877.00;;;1.15;100.00
50093;BME280;35974;47.752;10.290;2024-03-06T08:10:12;93866.84;;;1.14;100.00
50093;BME280;35974;47.752;10.290;2024-03-06T08:12:44;93877.41;;;1.20;100.00
50093;BME280;35974;47.752;10.290;2024-03-06T08:15:12;93883.72;;;1.26;100.00
50093;BME280;35974;47.752;10.290;2024-03-06T08:17:40;93902.13;;;1.31;100.00
50093;BME280;35974;47.752;10.290;2024-03-06T08:20:09;93862.22;;;0.99;100.00
50093;BME280;35974;47.752;10.290;2024-03-06T08:22:41;93895.72;;;1.17;100.00
50093;BME280;35974;47.752;10.290;2024-03-06T08:25:12;93892.53;;;1.05;100.00
50093;BME280;35974;47.752;10.290;2024-03-06T08:27:40;93880.91;;;1.01;100.00
50093;BME280;35974;47.752;10.290;2024-03-06T08:30:08;93879.78;;;1.04;100.00
50093;BME280;35974;47.752;10.290;2024-03-06T08:32:35;93895.78;;;1.07;100.00
50093;BME280;35974;47.752;10.290;2024-03-06T08:35:04;93911.94;;;1.27;100.00
50093;BME280;35974;47.752;10.290;2024-03-06T08:37:34;93880.69;;;1.13;100.00
50093;BME280;35974;47.752;10.290;2024-03-06T08:40:00;93897.56;;;1.25;100.00
50093;BME280;35974;47.752;10.290;2024-03-06T08:42:29;93915.72;;;1.69;100.00
50093;BME280;35974;47.752;10.290;2024-03-06T08:44:55;93877.69;;;1.35;100.00
50093;BME280;35974;47.752;10.290;2024-03-06T08:47:27;93916.72;;;1.40;100.00
50093;BME280;35974;47.752;10.290;2024-03-06T08:49:55;93883.56;;;1.45;100.00
50093;BME280;35974;47.752;10.290;2024-03-06T08:52:22;93897.31;;;1.72;100.00
50093;BME280;35974;47.752;10.290;2024-03-06T08:54:50;93900.38;;;1.50;100.00
50093;BME280;35974;47.752;10.290;2024-03-06T08:57:16;93889.91;;;1.33;100.00
50093;BME280;35974;47.752;10.290;2024-03-06T08:59:43;93893.66;;;1.57;100.00
50093;BME280;35974;47.752;10.290;2024-03-06T09:02:14;93898.97;;;1.55;100.00
50093;BME280;35974;47.752;10.290;2024-03-06T09:04:41;93912.59;;;1.48;100.00
50093;BME280;35974;47.752;10.290;2024-03-06T09:07:08;93909.72;;;1.51;100.00
50093;BME280;35974;47.752;10.290;2024-03-06T09:09:36;93927.69;;;1.60;100.00
50093;BME280;35974;47.752;10.290;2024-03-06T09:12:07;93908.19;;;1.40;100.00
50093;BME280;35974;47.752;10.290;2024-03-06T09:14:34;93919.69;;;1.45;100.00
50093;BME280;35974;47.752;10.290;2024-03-06T09:17:08;93914.81;;;1.42;100.00
50093;BME280;35974;47.752;10.290;2024-03-06T09:19:41;93905.22;;;1.53;100.00
50093;BME280;35974;47.752;10.290;2024-03-06T09:22:25;93907.00;;;1.34;100.00
50093;BME280;35974;47.752;10.290;2024-03-06T09:24:51;93922.91;;;1.48;100.00
50093;BME280;35974;47.752;10.290;2024-03-06T09:27:18;93919.47;;;1.57;100.00
50093;BME280;35974;47.752;10.290;2024-03-06T09:29:44;93926.03;;;1.69;100.00
50093;BME280;35974;47.752;10.290;2024-03-06T09:32:11;93949.47;;;1.58;100.00
50093;BME280;35974;47.752;10.290;2024-03-06T09:34:45;93915.38;;;1.36;100.00
50093;BME280;35974;47.752;10.290;2024-03-06T09:37:11;93913.22;;;1.41;100.00
50093;BME280;35974;47.752;10.290;2024-03-06T09:39:38;93947.75;;;1.85;100.00
50093;BME280;35974;47.752;10.290;2024-03-06T09:42:05;93929.34;;;1.61;100.00
50093;BME280;35974;47.752;10.290;2024-03-06T09:44:31;93915.72;;;1.69;100.00
50093;BME280;35974;47.752;10.290;2024-03-06T09:46:59;93954.31;;;1.97;100.00
50093;BME280;35974;47.752;10.290;2024-03-06T09:49:28;93929.09;;;1.91;100.00
50093;BME280;35974;47.752;10.290;2024-03-06T09:51:57;93937.50;;;1.93;100.00
50093;BME280;35974;47.752;10.290;2024-03-06T09:54:25;93926.38;;;1.74;100.00
50093;BME280;35974;47.752;10.290;2024-03-06T09:56:54;93934.84;;;1.85;100.00
50093;BME280;35974;47.752;10.290;2024-03-06T09:59:23;93938.63;;;1.90;100.00
50093;BME280;35974;47.752;10.290;2024-03-06T10:01:54;93957.72;;;1.79;100.00
50093;BME280;35974;47.752;10.290;2024-03-06T10:04:28;93950.63;;;1.81;100.00
50093;BME280;35974;47.752;10.290;2024-03-06T10:07:01;93908.84;;;1.60;100.00
50093;BME280;35974;47.752;10.290;2024-03-06T10:09:29;93926.03;;;1.69;100.00
50093;BME280;35974;47.752;10.290;2024-03-06T10:11:59;93929.84;;;1.65;100.00
50093;BME280;35974;47.752;10.290;2024-03-06T10:14:32;93943.41;;;1.67;100.00
50093;BME280;35974;47.752;10.290;2024-03-06T10:17:00;93951.22;;;1.75;100.00
50093;BME280;35974;47.752;10.290;2024-03-06T10:19:29;93967.19;;;2.15;100.00
50093;BME280;35974;47.752;10.290;2024-03-06T10:21:56;93965.22;;;1.91;100.00
50093;BME280;35974;47.752;10.290;2024-03-06T10:24:27;93946.22;;;1.92;100.00
50093;BME280;35974;47.752;10.290;2024-03-06T10:26:58;93963.88;;;1.87;100.00
50093;BME280;35974;47.752;10.290;2024-03-06T10:29:27;93944.59;;;1.55;100.00
50093;BME280;35974;47.752;10.290;2024-03-06T10:31:57;93975.69;;;1.71;100.00
50093;BME280;35974;47.752;10.290;2024-03-06T10:34:26;93956.72;;;1.62;100.00
50093;BME280;35974;47.752;10.290;2024-03-06T10:39:23;93972.31;;;1.89;100.00
50093;BME280;35974;47.752;10.290;2024-03-06T10:41:52;93975.25;;;1.94;100.00
50093;BME280;35974;47.752;10.290;2024-03-06T10:44:25;93956.81;;;1.89;100.00
50093;BME280;35974;47.752;10.290;2024-03-06T10:47:06;93954.59;;;1.94;100.00
50093;BME280;35974;47.752;10.290;2024-03-06T10:49:36;93968.88;;;2.06;100.00
50093;BME280;35974;47.752;10.290;2024-03-06T10:52:05;93963.34;;;2.19;100.00
50093;BME280;35974;47.752;10.290;2024-03-06T10:54:35;93994.38;;;2.27;100.00
50093;BME280;35974;47.752;10.290;2024-03-06T10:57:03;93989.69;;;2.23;100.00
50093;BME280;35974;47.752;10.290;2024-03-06T10:59:30;93958.19;;;2.01;100.00
50093;BME280;35974;47.752;10.290;2024-03-06T11:01:58;93967.69;;;2.18;100.00
50093;BME280;35974;47.752;10.290;2024-03-06T11:04:30;93976.09;;;2.20;100.00
50093;BME280;35974;47.752;10.290;2024-03-06T11:07:02;93984.34;;;2.42;100.00
50093;BME280;35974;47.752;10.290;2024-03-06T11:09:37;93972.16;;;2.61;100.00
50093;BME280;35974;47.752;10.290;2024-03-06T11:12:05;93953.09;;;2.09;100.00
50093;BME280;35974;47.752;10.290;2024-03-06T11:14:36;93945.09;;;1.94;100.00
50093;BME280;35974;47.752;10.290;2024-03-06T11:17:09;93939.84;;;2.04;100.00
50093;BME280;35974;47.752;10.290;2024-03-06T11:28:24;93989.50;;;2.42;100.00
50093;BME280;35974;47.752;10.290;2024-03-06T11:33:21;93948.38;;;2.23;100.00
50093;BME280;35974;47.752;10.290;2024-03-06T11:36:18;93991.59;;;2.20;100.00
50093;BME280;35974;47.752;10.290;2024-03-06T11:41:20;93973.16;;;2.15;100.00
50093;BME280;35974;47.752;10.290;2024-03-06T11:43:51;93967.09;;;2.25;100.00
50093;BME280;35974;47.752;10.290;2024-03-06T11:46:20;93981.06;;;2.40;100.00
50093;BME280;35974;47.752;10.290;2024-03-06T11:48:56;93960.78;;;2.01;100.00
50093;BME280;35974;47.752;10.290;2024-03-06T11:51:24;93961.81;;;2.08;100.00
50093;BME280;35974;47.752;10.290;2024-03-06T11:53:52;93974.56;;;2.10;100.00
50093;BME280;35974;47.752;10.290;2024-03-06T11:56:20;93983.59;;;2.32;100.00
50093;BME280;35974;47.752;10.290;2024-03-06T11:58:47;93976.84;;;2.31;100.00
50093;BME280;35974;47.752;10.290;2024-03-06T12:01:16;93978.72;;;2.29;100.00
50093;BME280;35974;47.752;10.290;2024-03-06T12:03:55;93972.06;;;2.44;100.00
50093;BME280;35974;47.752;10.290;2024-03-06T12:06:30;93966.06;;;2.17;100.00
50093;BME280;35974;47.752;10.290;2024-03-06T12:08:58;93960.31;;;2.24;100.00
50093;BME280;35974;47.752;10.290;2024-03-06T12:11:25;93969.31;;;2.19;100.00
50093;BME280;35974;47.752;10.290;2024-03-06T12:13:55;93968.88;;;2.06;100.00
50093;BME280;35974;47.752;10.290;2024-03-06T12:16:25;93966.34;;;2.14;100.00
50093;BME280;35974;47.752;10.290;2024-03-06T12:19:00;93984.34;;;2.42;100.00
50093;BME280;35974;47.752;10.290;2024-03-06T12:21:47;93983.16;;;2.36;100.00
50093;BME280;35974;47.752;10.290;2024-03-06T12:24:17;93969.81;;;2.23;100.00
50093;BME280;35974;47.752;10.290;2024-03-06T12:26:59;94001.13;;;2.46;100.00
50093;BME280;35974;47.752;10.290;2024-03-06T12:29:28;93977.84;;;2.38;100.00
50093;BME280;35974;47.752;10.290;2024-03-06T12:32:15;93990.84;;;2.54;100.00
50093;BME280;35974;47.752;10.290;2024-03-06T12:34:43;93971.78;;;2.47;100.00
50093;BME280;35974;47.752;10.290;2024-03-06T12:37:14;93986.97;;;2.50;100.00
50093;BME280;35974;47.752;10.290;2024-03-06T12:39:40;93957.88;;;2.48;100.00
50093;BME280;35974;47.752;10.290;2024-03-06T12:42:11;93976.34;;;2.35;100.00
50093;BME280;35974;47.752;10.290;2024-03-06T12:44:39;93991.41;;;2.40;100.00
50093;BME280;35974;47.752;10.290;2024-03-06T12:47:07;93968.59;;;2.09;100.00
50093;BME280;35974;47.752;10.290;2024-03-06T12:49:33;93978.38;;;2.24;100.00
50093;BME280;35974;47.752;10.290;2024-03-06T12:52:00;93971.63;;;2.23;100.00
50093;BME280;35974;47.752;10.290;2024-03-06T12:54:30;93971.22;;;2.17;100.00
50093;BME280;35974;47.752;10.290;2024-03-06T12:57:02;93968.88;;;2.06;100.00
50093;BME280;35974;47.752;10.290;2024-03-06T12:59:30;93951.66;;;1.89;100.00
50093;BME280;35974;47.752;10.290;2024-03-06T13:01:56;93971.22;;;2.17;100.00
50093;BME280;35974;47.752;10.290;2024-03-06T13:04:24;93950.88;;;2.14;100.00
50093;BME280;35974;47.752;10.290;2024-03-06T13:06:56;93986.34;;;2.12;100.00
50093;BME280;35974;47.752;10.290;2024-03-06T13:09:23;93970.22;;;2.10;100.00
50093;BME280;35974;47.752;10.290;2024-03-06T13:11:50;93970.44;;;2.17;100.00
50093;BME280;35974;47.752;10.290;2024-03-06T13:14:17;93990.41;;;2.33;100.00
50093;BME280;35974;47.752;10.290;2024-03-06T13:16:44;93974.31;;;2.39;100.00
50093;BME280;35974;47.752;10.290;2024-03-06T13:19:13;93986.84;;;2.34;100.00
50093;BME280;35974;47.752;10.290;2024-03-06T13:21:39;93982.00;;;2.31;100.00